createdAt,value
2019-02-16T00:01:55.457Z,9.22
2019-02-16T00:08:01.205Z,9.10
2019-02-16T00:14:07.482Z,9.03
2019-02-16T00:20:13.512Z,8.90
2019-02-16T00:26:19.487Z,8.81
2019-02-16T00:32:25.333Z,8.82
2019-02-16T00:38:31.095Z,8.73
2019-02-16T00:44:38.665Z,8.69
2019-02-16T00:50:44.375Z,8.60
2019-02-16T00:56:50.225Z,8.51
2019-02-16T01:02:56.067Z,8.47
2019-02-16T01:09:01.784Z,8.50
2019-02-16T01:15:09.479Z,8.45
2019-02-16T01:21:22.608Z,8.37
2019-02-16T01:27:22.865Z,8.26
2019-02-16T01:33:28.658Z,8.27
2019-02-16T01:39:34.740Z,8.22
2019-02-16T01:45:40.457Z,8.18
2019-02-16T01:51:46.478Z,8.16
2019-02-16T01:57:52.398Z,8.09
2019-02-16T02:03:58.147Z,8.07
2019-02-16T02:10:04.040Z,8.02
2019-02-16T02:16:09.760Z,7.92
2019-02-16T02:22:15.472Z,7.93
2019-02-16T02:28:21.211Z,7.95
2019-02-16T02:34:27.815Z,7.92
2019-02-16T02:40:33.886Z,7.83
2019-02-16T02:46:39.882Z,7.72
2019-02-16T02:52:45.620Z,7.67
2019-02-16T02:58:51.596Z,7.64
2019-02-16T03:04:57.438Z,7.58
2019-02-16T03:11:03.291Z,7.54
2019-02-16T03:17:09.068Z,7.50
2019-02-16T03:23:22.609Z,7.45
2019-02-16T03:30:35.945Z,7.42
2019-02-16T03:37:28.760Z,7.40
2019-02-16T03:43:34.697Z,7.44
2019-02-16T03:49:40.664Z,7.38
2019-02-16T03:55:46.500Z,7.31
2019-02-16T04:01:52.224Z,7.21
2019-02-16T04:07:57.947Z,7.13
2019-02-16T04:14:03.707Z,7.06
2019-02-16T04:20:09.671Z,6.98
2019-02-16T04:26:15.430Z,6.87
2019-02-16T04:32:21.446Z,6.80
2019-02-16T04:38:27.441Z,6.70
2019-02-16T04:44:33.654Z,6.63
2019-02-16T04:50:39.400Z,6.54
2019-02-16T04:56:45.169Z,6.46
2019-02-16T05:02:50.896Z,6.41
2019-02-16T05:08:56.620Z,6.36
2019-02-16T05:15:02.538Z,6.36
2019-02-16T05:21:08.263Z,6.30
2019-02-16T05:27:14.074Z,6.19
2019-02-16T05:33:19.813Z,6.11
2019-02-16T05:39:25.858Z,6.05
2019-02-16T05:45:31.570Z,6.01
2019-02-16T05:51:37.385Z,6.01
2019-02-16T05:57:43.117Z,5.95
2019-02-16T06:03:48.931Z,5.98
2019-02-16T06:09:54.646Z,5.96
2019-02-16T06:16:00.556Z,5.96
2019-02-16T06:22:06.359Z,5.99
2019-02-16T06:28:12.082Z,5.95
2019-02-16T06:34:17.817Z,5.85
2019-02-16T06:40:23.711Z,5.79
2019-02-16T06:46:31.095Z,5.83
2019-02-16T06:52:36.774Z,5.77
2019-02-16T06:58:42.558Z,5.72
2019-02-16T07:04:48.361Z,5.69
2019-02-16T07:10:54.247Z,5.73
2019-02-16T07:17:18.828Z,5.79
2019-02-16T07:23:24.988Z,5.89
2019-02-16T07:29:30.802Z,6.02
2019-02-16T07:35:36.555Z,6.20
2019-02-16T07:41:42.610Z,6.33
2019-02-16T07:48:09.348Z,6.40
2019-02-16T07:54:24.810Z,6.52
2019-02-16T08:00:39.585Z,6.62
2019-02-16T08:07:04.206Z,6.79
2019-02-16T08:13:28.797Z,6.97
2019-02-16T08:19:53.285Z,7.10
2019-02-16T08:26:06.049Z,7.25
2019-02-16T08:32:30.847Z,7.45
2019-02-16T08:38:53.180Z,7.65
2019-02-16T08:45:16.797Z,7.79
2019-02-16T08:51:35.018Z,7.97
2019-02-16T08:57:59.971Z,8.14
2019-02-16T09:04:24.785Z,8.29
2019-02-16T09:11:01.492Z,8.48
2019-02-16T09:17:18.513Z,8.70
2019-02-16T09:23:36.755Z,8.87
2019-02-16T09:30:01.530Z,9.15
2019-02-16T09:36:21.484Z,9.36
2019-02-16T09:42:42.891Z,9.53
2019-02-16T09:49:01.226Z,9.71
2019-02-16T09:55:26.695Z,9.93
2019-02-16T10:01:54.474Z,10.03
2019-02-16T10:08:11.114Z,10.15
2019-02-16T10:14:36.125Z,10.30
2019-02-16T10:20:49.920Z,10.54
2019-02-16T10:27:14.505Z,10.69
2019-02-16T10:33:57.771Z,10.83
2019-02-16T10:40:16.629Z,11.09
2019-02-16T10:46:53.373Z,11.24
2019-02-16T10:53:15.562Z,11.36
2019-02-16T10:59:29.596Z,11.52
2019-02-16T11:05:54.219Z,11.65
2019-02-16T11:12:17.469Z,11.79
2019-02-16T11:18:57.276Z,11.91
2019-02-16T11:25:31.254Z,12.03
2019-02-16T11:31:53.248Z,12.21
2019-02-16T11:38:16.674Z,12.34
2019-02-16T11:44:40.064Z,12.52
2019-02-16T11:51:00.235Z,12.75
2019-02-16T11:57:25.210Z,12.88
2019-02-16T12:03:40.500Z,13.07
2019-02-16T12:10:14.186Z,13.20
2019-02-16T12:16:29.461Z,13.32
2019-02-16T12:22:41.917Z,13.44
2019-02-16T12:29:14.273Z,13.56
2019-02-16T12:35:35.164Z,13.67
2019-02-16T12:41:59.772Z,13.79
2019-02-16T12:48:24.502Z,13.92
2019-02-16T12:55:01.066Z,14.00
2019-02-16T13:01:20.430Z,14.10
2019-02-16T13:07:36.705Z,14.25
2019-02-16T13:13:50.485Z,14.39
2019-02-16T13:20:14.784Z,14.48
2019-02-16T13:26:39.527Z,14.56
2019-02-16T13:32:58.383Z,14.65
2019-02-16T13:39:26.493Z,14.75
2019-02-16T13:45:54.199Z,14.80
2019-02-16T13:52:18.798Z,14.82
2019-02-16T13:58:43.464Z,14.89
2019-02-16T14:04:57.096Z,14.96
2019-02-16T14:11:21.948Z,15.04
2019-02-16T14:17:39.027Z,15.12
2019-02-16T14:23:45.063Z,15.17
2019-02-16T14:29:50.960Z,15.18
2019-02-16T14:35:56.786Z,15.18
2019-02-16T14:42:02.822Z,15.19
2019-02-16T14:48:08.668Z,15.19
2019-02-16T14:54:14.496Z,15.18
2019-02-16T15:00:20.485Z,15.19
2019-02-16T15:06:26.427Z,15.18
2019-02-16T15:12:32.173Z,15.14
2019-02-16T15:18:38.017Z,15.13
2019-02-16T15:24:43.838Z,15.05
2019-02-16T15:30:49.588Z,15.00
2019-02-16T15:36:55.416Z,14.98
2019-02-16T15:43:01.250Z,14.98
2019-02-16T15:49:07.081Z,14.94
2019-02-16T15:55:13.070Z,14.82
2019-02-16T16:01:18.985Z,14.70
2019-02-16T16:07:24.990Z,14.55
2019-02-16T16:13:52.371Z,14.35
2019-02-16T16:20:15.424Z,14.19
2019-02-16T16:26:42.642Z,13.98
2019-02-16T16:33:10.323Z,13.74
2019-02-16T16:39:33.572Z,13.52
2019-02-16T16:46:13.228Z,13.29
2019-02-16T16:52:43.971Z,13.03
2019-02-16T16:59:14.693Z,12.78
2019-02-16T17:05:54.746Z,12.59
2019-02-16T17:12:20.930Z,12.37
2019-02-16T17:18:51.957Z,12.16
2019-02-16T17:25:11.375Z,11.94
2019-02-16T17:31:22.624Z,11.74
2019-02-16T17:37:54.917Z,11.50
2019-02-16T17:44:25.395Z,11.24
2019-02-16T17:50:50.020Z,10.98
2019-02-16T17:57:14.703Z,10.85
2019-02-16T18:03:28.496Z,10.56
2019-02-16T18:09:52.575Z,10.33
2019-02-16T18:16:08.252Z,10.28
2019-02-16T18:22:28.854Z,10.21
2019-02-16T18:28:57.256Z,10.16
2019-02-16T18:35:23.878Z,10.06
2019-02-16T18:41:55.412Z,9.95
2019-02-16T18:48:23.802Z,9.82
2019-02-16T18:54:57.898Z,9.72
2019-02-16T19:01:20.091Z,9.57
2019-02-16T19:07:40.311Z,9.26
2019-02-16T19:13:53.702Z,8.62
2019-02-16T19:20:25.464Z,8.60
2019-02-16T19:26:39.155Z,8.45
2019-02-16T19:33:03.877Z,8.14
2019-02-16T19:39:18.999Z,8.09
2019-02-16T19:45:43.568Z,8.10
2019-02-16T19:52:12.650Z,7.93
2019-02-16T19:58:40.064Z,7.82
2019-02-16T20:05:08.198Z,7.77
2019-02-16T20:11:33.808Z,7.62
2019-02-16T20:17:49.824Z,7.52
2019-02-16T20:24:26.636Z,7.42
2019-02-16T20:31:00.303Z,7.30
2019-02-16T20:37:13.307Z,7.22
2019-02-16T20:43:36.374Z,7.03
2019-02-16T20:50:09.999Z,6.94
2019-02-16T20:56:52.776Z,6.84
2019-02-16T21:03:18.510Z,6.73
2019-02-16T21:09:52.042Z,6.63
2019-02-16T21:16:03.905Z,6.58
2019-02-16T21:22:34.711Z,6.46
2019-02-16T21:29:08.374Z,6.25
2019-02-16T21:35:31.473Z,6.10
2019-02-16T21:41:56.079Z,5.90
2019-02-16T21:48:17.066Z,5.81
2019-02-16T21:54:41.795Z,5.70
2019-02-16T22:01:21.327Z,5.74
2019-02-16T22:07:41.258Z,5.67
2019-02-16T22:13:47.291Z,5.61
2019-02-16T22:19:54.771Z,5.59
2019-02-16T22:26:00.616Z,5.57
2019-02-16T22:32:06.686Z,5.60
2019-02-16T22:38:12.582Z,5.64
2019-02-16T22:44:18.566Z,5.64
2019-02-16T22:50:24.368Z,5.61
2019-02-16T22:56:30.119Z,5.61
2019-02-16T23:02:35.874Z,5.50
2019-02-16T23:08:41.761Z,5.24
2019-02-16T23:14:47.554Z,5.16
2019-02-16T23:20:53.267Z,5.18
2019-02-16T23:26:59.423Z,5.17
2019-02-16T23:33:05.220Z,5.18
2019-02-16T23:39:11.868Z,5.18
2019-02-16T23:45:17.956Z,4.96
2019-02-16T23:51:23.742Z,4.90
2019-02-16T23:57:29.725Z,4.85
